Salina, KS

7:03 PM CDT on August 28, 2015 (GMT -0500)
Stegall's backyard | | Change Station
CLOSE
Current Station
Personal Weather Station
Location: Salina, KS
Elevation: 1247 ft
Nearby Weather Stations

Elev 1247 ft 38.82 °N, 97.63 °W | Updated 4 minutes ago

Partly Cloudy
Partly Cloudy
84.2 °F
Feels Like 88 °F
N
2.2
Wind Variable Wind from SSW

Today
High -- | Low -- °F
--% Chance of Precip.
Yesterday
High -- | Low -- °F
Precip. -- in
6:55 AM 8:07 PM
Waxing Gibbous, 99% visible
Pressure 29.86 in
Visibility 10.0 miles
Clouds Mostly Cloudy 7500 ft
Heat Index 88 °F
Dew Point 70 °F
Humidity 62%
Rainfall 0.09 in
Snow Depth Not available.
UV 0 out of 12
Pollen 4.80 out of 12
Air Quality Not available.
Flu Activity Not available.
METAR KSLN 282353Z 36007KT 10SM BKN075 29/20 A2989 RMK AO2 SLP109 T02890200 10311 20283 53003
Pressure 29.86 in
Visibility 10.0 miles
Clouds Mostly Cloudy 7500 ft
Heat Index 88 °F
Dew Point 70 °F
Humidity 62%
Rainfall 0.09 in
Snow Depth Not available.
UV 0 out of 12
Pollen 4.80 out of 12
Air Quality Not available.
Flu Activity Not available.
METAR KSLN 282353Z 36007KT 10SM BKN075 29/20 A2989 RMK AO2 SLP109 T02890200 10311 20283 53003

10-Day Weather Forecast

×

Almanac

Astronomy

Aug. 28, 2015 Rise Set
Actual Time
Civil Twilight
Nautical Twilight
Astronomical Twilight
Moon
Length of Visible Light
Length of Day
Tomorrow will be .
, % of the Moon is Illuminated

Today's Extremes

State Highs State Lows

Community

WunderPhotos

Upload Photos

1,850,538 photos uploaded!

WunderBlogs® & News

Nearby

Air Quality

  Air Quality AQ Index Pollutant
Not available.

Snow Depth

Station Depth Elevation

Earthquake Activity

City Distance Mag. Time & Date
Minimum magnitude displayed is 2.5.

Coastal Water Temperatures

Place Temperature

Stations

Nearby Weather Stations

Station Location Temp. Windchill Dew Point Humidity Wind Precip. Elev Updated Type